createdAt,value
2018-09-04T00:00:23.075Z,9.47
2018-09-04T00:02:51.213Z,8.07
2018-09-04T00:05:19.314Z,9.13
2018-09-04T00:07:47.463Z,8.53
2018-09-04T00:10:15.846Z,7.67
2018-09-04T00:12:43.934Z,5.27
2018-09-04T00:15:12.087Z,7.47
2018-09-04T00:17:40.222Z,7.33
2018-09-04T00:20:08.282Z,10.13
2018-09-04T00:22:36.662Z,8.13
2018-09-04T00:25:04.792Z,7.90
2018-09-04T00:27:32.872Z,8.60
2018-09-04T00:30:01.065Z,9.90
2018-09-04T00:32:29.241Z,7.80
2018-09-04T00:34:57.298Z,9.43
2018-09-04T00:37:25.378Z,9.27
2018-09-04T00:39:53.607Z,7.93
2018-09-04T00:42:21.709Z,9.70
2018-09-04T00:47:23.170Z,8.20
2018-09-04T00:49:51.333Z,13.30
2018-09-04T00:52:19.397Z,9.83
2018-09-04T00:54:47.528Z,8.03
2018-09-04T00:57:15.602Z,10.50
2018-09-04T00:59:43.726Z,10.00
2018-09-04T01:02:11.843Z,8.20
2018-09-04T01:04:39.922Z,11.67
2018-09-04T01:07:08.034Z,8.47
2018-09-04T01:09:36.174Z,12.80
2018-09-04T01:12:04.294Z,9.80
2018-09-04T01:14:32.457Z,9.20
2018-09-04T01:17:00.781Z,10.47
2018-09-04T01:19:29.056Z,8.73
2018-09-04T01:21:57.193Z,10.73
2018-09-04T01:24:25.450Z,9.20
2018-09-04T01:26:53.541Z,10.70
2018-09-04T01:29:21.710Z,7.57
2018-09-04T01:31:49.793Z,9.70
2018-09-04T01:34:17.890Z,10.30
2018-09-04T01:36:46.094Z,12.97
2018-09-04T01:39:14.190Z,9.20
2018-09-04T01:41:42.270Z,8.43
2018-09-04T01:44:10.370Z,12.77
2018-09-04T01:46:38.602Z,9.17
2018-09-04T01:49:06.974Z,11.00
2018-09-04T01:51:35.147Z,12.73
2018-09-04T01:54:03.234Z,11.40
2018-09-04T01:56:31.342Z,8.77
2018-09-04T01:58:59.405Z,12.53
2018-09-04T02:01:27.531Z,9.50
2018-09-04T02:03:55.580Z,10.33
2018-09-04T02:06:23.658Z,10.70
2018-09-04T02:08:51.759Z,14.97
2018-09-04T02:11:19.822Z,12.80
2018-09-04T02:13:47.894Z,12.20
2018-09-04T02:16:16.095Z,11.17
2018-09-04T02:18:44.198Z,9.37
2018-09-04T02:21:12.326Z,11.07
2018-09-04T02:23:40.411Z,10.20
2018-09-04T02:26:08.525Z,10.20
2018-09-04T02:28:36.608Z,10.30
2018-09-04T02:31:04.679Z,9.40
2018-09-04T02:33:32.822Z,10.50
2018-09-04T02:36:00.926Z,11.63
2018-09-04T02:38:29.396Z,11.47
2018-09-04T02:40:57.534Z,13.03
2018-09-04T02:43:25.763Z,10.97
2018-09-04T02:45:53.858Z,11.17
2018-09-04T02:48:21.953Z,9.63
2018-09-04T02:50:50.166Z,12.30
2018-09-04T02:53:18.222Z,16.10
2018-09-04T02:55:46.290Z,12.40
2018-09-04T02:58:14.375Z,11.63
2018-09-04T03:00:42.450Z,11.77
2018-09-04T03:03:10.670Z,11.93
2018-09-04T03:05:38.753Z,12.78
2018-09-04T03:08:06.870Z,14.63
2018-09-04T03:10:34.931Z,10.70
2018-09-04T03:13:03.002Z,14.70
2018-09-04T03:15:31.102Z,17.93
2018-09-04T03:17:59.266Z,20.87
2018-09-04T03:20:27.410Z,10.93
2018-09-04T03:22:55.601Z,21.30
2018-09-04T03:25:23.788Z,16.83
2018-09-04T03:27:51.965Z,13.63
2018-09-04T03:30:20.136Z,12.27
2018-09-04T03:32:48.289Z,12.83
2018-09-04T03:35:16.404Z,10.60
2018-09-04T03:37:44.514Z,10.77
2018-09-04T03:40:12.790Z,11.53
2018-09-04T03:42:41.194Z,11.10
2018-09-04T03:45:09.714Z,11.83
2018-09-04T03:47:38.350Z,10.37
2018-09-04T03:50:06.519Z,11.63
2018-09-04T03:52:34.650Z,11.17
2018-09-04T03:55:02.706Z,14.30
2018-09-04T03:57:30.818Z,12.80
2018-09-04T03:59:58.898Z,10.53
2018-09-04T04:02:27.077Z,10.93
2018-09-04T04:04:55.152Z,10.20
2018-09-04T04:07:23.227Z,8.93
2018-09-04T04:09:51.410Z,14.47
2018-09-04T04:12:19.556Z,12.33
2018-09-04T04:14:47.691Z,13.03
2018-09-04T04:17:15.771Z,10.97
2018-09-04T04:19:43.826Z,10.63
2018-09-04T04:22:11.950Z,10.37
2018-09-04T04:24:40.086Z,9.40
2018-09-04T04:27:08.205Z,15.23
2018-09-04T04:29:37.078Z,13.30
2018-09-04T04:32:05.243Z,11.20
2018-09-04T04:34:33.335Z,8.33
2018-09-04T04:37:01.479Z,11.37
2018-09-04T04:39:29.585Z,11.53
2018-09-04T04:41:57.963Z,10.13
2018-09-04T04:44:26.078Z,9.20
2018-09-04T04:46:54.155Z,9.27
2018-09-04T04:49:22.275Z,9.67
2018-09-04T04:51:50.402Z,8.70
2018-09-04T04:54:18.500Z,10.27
2018-09-04T04:56:46.603Z,8.77
2018-09-04T04:59:14.714Z,8.03
2018-09-04T05:01:42.770Z,9.60
2018-09-04T05:04:10.909Z,10.27
2018-09-04T05:06:39.077Z,9.30
2018-09-04T05:09:08.167Z,6.50
2018-09-04T05:11:36.390Z,7.70
2018-09-04T05:14:04.393Z,8.80
2018-09-04T05:16:32.458Z,8.10
2018-09-04T05:19:00.559Z,10.87
2018-09-04T05:21:28.615Z,8.73
2018-09-04T05:23:56.718Z,8.10
2018-09-04T05:26:24.790Z,7.83
2018-09-04T05:28:52.854Z,9.03
2018-09-04T05:31:21.005Z,7.00
2018-09-04T05:33:49.074Z,7.00
2018-09-04T05:36:17.365Z,8.10
2018-09-04T05:38:46.115Z,8.57
2018-09-04T05:41:14.330Z,7.67
2018-09-04T05:43:52.714Z,5.63
2018-09-04T05:46:38.202Z,7.97
2018-09-04T05:49:06.350Z,7.73
2018-09-04T05:51:34.421Z,7.20
2018-09-04T05:54:02.592Z,7.60
2018-09-04T05:56:31.444Z,7.87
2018-09-04T05:59:01.551Z,10.17
2018-09-04T06:01:29.645Z,8.87
2018-09-04T06:03:57.740Z,10.40
2018-09-04T06:06:25.874Z,15.17
2018-09-04T06:08:53.964Z,8.47
2018-09-04T06:11:22.118Z,12.77
2018-09-04T06:13:50.457Z,8.70
2018-09-04T06:16:18.692Z,10.77
2018-09-04T06:18:46.819Z,11.70
2018-09-04T06:21:14.936Z,14.97
2018-09-04T06:23:43.138Z,12.80
2018-09-04T06:26:11.316Z,15.57
2018-09-04T06:28:39.464Z,10.10
2018-09-04T06:31:07.557Z,14.80
2018-09-04T06:33:36.088Z,12.73
2018-09-04T06:36:04.574Z,13.13
2018-09-04T06:38:32.670Z,13.70
2018-09-04T06:41:01.036Z,13.83
2018-09-04T06:43:29.898Z,11.67
2018-09-04T06:45:58.076Z,11.43
2018-09-04T06:48:26.358Z,10.57
2018-09-04T06:50:54.554Z,11.00
2018-09-04T06:53:22.717Z,12.77
2018-09-04T06:55:50.838Z,15.23
2018-09-04T06:58:18.938Z,13.10
2018-09-04T07:00:47.102Z,11.03
2018-09-04T07:03:15.368Z,10.57
2018-09-04T07:05:43.470Z,12.47
2018-09-04T07:08:11.558Z,12.87
2018-09-04T07:10:39.743Z,10.80
2018-09-04T07:13:07.926Z,11.23
2018-09-04T07:15:36.014Z,9.63
2018-09-04T07:18:04.153Z,11.10
2018-09-04T07:20:32.239Z,11.67
2018-09-04T07:23:00.407Z,11.63
2018-09-04T07:25:28.526Z,12.03
2018-09-04T07:27:56.636Z,15.03
2018-09-04T07:30:24.784Z,10.77
2018-09-04T07:32:52.894Z,15.87
2018-09-04T07:35:21.033Z,10.57
2018-09-04T07:37:49.174Z,10.97
2018-09-04T07:40:17.327Z,9.43
2018-09-04T07:42:45.456Z,8.63
2018-09-04T07:45:13.566Z,11.50
2018-09-04T07:47:41.639Z,9.73
2018-09-04T07:50:10.422Z,11.57
2018-09-04T07:52:38.598Z,9.23
2018-09-04T07:55:07.054Z,11.23
2018-09-04T07:57:35.227Z,11.73
2018-09-04T08:00:03.366Z,14.03
2018-09-04T08:02:31.494Z,16.23
2018-09-04T08:04:59.695Z,9.37
2018-09-04T08:07:27.793Z,11.37
2018-09-04T08:09:55.995Z,11.15
2018-09-04T08:12:24.157Z,10.40
2018-09-04T08:14:52.226Z,9.23
2018-09-04T08:17:20.359Z,11.50
2018-09-04T08:19:48.906Z,14.63
2018-09-04T08:22:16.979Z,11.63
2018-09-04T08:24:45.213Z,10.17
2018-09-04T08:27:13.319Z,9.07
2018-09-04T08:29:41.498Z,7.77
2018-09-04T08:32:09.590Z,11.00
2018-09-04T08:34:37.701Z,9.30
2018-09-04T08:37:05.892Z,9.10
2018-09-04T08:39:34.056Z,8.53
2018-09-04T08:42:02.218Z,9.60
2018-09-04T08:44:30.665Z,7.67
2018-09-04T08:46:58.774Z,8.33
2018-09-04T08:49:27.043Z,7.57
2018-09-04T08:51:55.123Z,10.20
2018-09-04T08:54:23.243Z,7.97
2018-09-04T08:56:51.347Z,9.60
2018-09-04T08:59:19.438Z,6.50
2018-09-04T09:01:47.584Z,6.50
2018-09-04T09:04:15.713Z,8.67
2018-09-04T09:06:43.791Z,7.03
2018-09-04T09:09:11.964Z,7.40
2018-09-04T09:11:40.139Z,8.87
2018-09-04T09:14:08.290Z,8.80
2018-09-04T09:16:36.621Z,8.47
2018-09-04T09:19:04.777Z,6.77
2018-09-04T09:21:32.954Z,8.27
2018-09-04T09:24:01.134Z,6.97
2018-09-04T09:26:29.266Z,9.77
2018-09-04T09:28:57.586Z,11.67
2018-09-04T09:31:26.343Z,8.53
2018-09-04T09:33:54.693Z,8.40
2018-09-04T09:36:26.959Z,7.23
2018-09-04T09:38:55.303Z,8.87
2018-09-04T09:41:25.490Z,7.77
2018-09-04T09:43:56.549Z,8.50
2018-09-04T09:46:27.314Z,8.07
2018-09-04T09:48:58.853Z,7.40
2018-09-04T09:51:27.051Z,9.60
2018-09-04T09:53:55.199Z,7.30
2018-09-04T09:56:23.331Z,6.33
2018-09-04T09:58:51.418Z,7.93
2018-09-04T10:01:19.541Z,5.77
2018-09-04T10:03:53.153Z,9.40
2018-09-04T10:06:22.096Z,6.30
2018-09-04T10:08:50.450Z,8.37
2018-09-04T10:13:56.828Z,8.47
2018-09-04T10:16:24.918Z,10.57
2018-09-04T10:18:53.316Z,6.33
2018-09-04T10:21:21.501Z,32.47
2018-09-04T10:23:49.542Z,14.77
2018-09-04T10:26:17.765Z,9.83
2018-09-04T10:28:45.886Z,14.50
2018-09-04T10:31:14.068Z,7.33
2018-09-04T10:33:42.263Z,9.53
2018-09-04T10:36:11.069Z,7.13
2018-09-04T10:38:39.227Z,9.00
2018-09-04T10:41:14.932Z,7.10
2018-09-04T10:43:43.110Z,10.87
2018-09-04T10:46:15.023Z,9.70
2018-09-04T10:48:43.410Z,7.47
2018-09-04T10:51:11.559Z,9.43
2018-09-04T10:53:39.678Z,7.67
2018-09-04T10:56:07.858Z,7.33
2018-09-04T10:58:35.975Z,7.77
2018-09-04T11:01:04.054Z,7.87
2018-09-04T11:03:32.987Z,9.10
2018-09-04T11:06:01.090Z,8.83
2018-09-04T11:08:29.676Z,9.50
2018-09-04T11:10:57.784Z,6.57
2018-09-04T11:13:25.922Z,7.70
2018-09-04T11:15:54.899Z,7.50
2018-09-04T11:18:23.195Z,7.20
2018-09-04T11:20:51.547Z,10.43
2018-09-04T11:23:19.675Z,8.57
2018-09-04T11:25:47.887Z,10.13
2018-09-04T11:28:16.354Z,8.57
2018-09-04T11:30:52.585Z,8.70
2018-09-04T11:33:22.526Z,7.43
2018-09-04T11:36:08.976Z,8.93
2018-09-04T11:41:31.964Z,8.00
2018-09-04T11:44:05.930Z,9.23
2018-09-04T11:46:35.404Z,12.20
2018-09-04T11:49:11.764Z,7.53
2018-09-04T11:51:45.368Z,9.23
2018-09-04T11:54:13.955Z,9.30
2018-09-04T11:56:47.128Z,9.83
2018-09-04T11:59:27.002Z,7.53
2018-09-04T12:04:44.331Z,8.67
2018-09-04T12:07:21.560Z,8.13
2018-09-04T12:09:51.428Z,11.33
2018-09-04T12:12:44.135Z,8.50
2018-09-04T12:15:20.163Z,8.57
2018-09-04T12:17:49.659Z,7.60
2018-09-04T12:20:33.051Z,8.27
2018-09-04T12:23:01.830Z,9.03
2018-09-04T12:25:30.634Z,8.47
2018-09-04T12:28:02.363Z,9.53
2018-09-04T12:30:40.532Z,7.30
2018-09-04T12:33:10.632Z,8.87
2018-09-04T12:35:39.624Z,10.20
2018-09-04T12:38:13.455Z,7.10
2018-09-04T12:40:53.063Z,8.87
2018-09-04T12:43:22.663Z,9.97
2018-09-04T12:45:57.760Z,7.10
2018-09-04T12:48:29.240Z,8.47
2018-09-04T12:51:00.539Z,9.13
2018-09-04T12:53:48.152Z,8.07
2018-09-04T12:56:19.217Z,9.63
2018-09-04T12:58:47.786Z,7.57
2018-09-04T13:01:21.439Z,8.70
2018-09-04T13:03:50.228Z,9.67
2018-09-04T13:06:22.379Z,8.73
2018-09-04T13:08:59.467Z,7.73
2018-09-04T13:11:35.529Z,9.40
2018-09-04T13:14:05.659Z,8.40
2018-09-04T13:16:36.082Z,8.63
2018-09-04T13:40:11.580Z,9.90
2018-09-04T13:42:40.397Z,9.30
2018-09-04T13:45:09.415Z,9.23
2018-09-04T13:47:43.379Z,9.20
2018-09-04T13:50:14.289Z,7.00
2018-09-04T13:52:44.357Z,10.00
2018-09-04T13:55:13.371Z,8.50
2018-09-04T13:57:52.677Z,8.77
2018-09-04T14:00:29.308Z,8.47
2018-09-04T14:02:59.740Z,9.80
2018-09-04T14:05:28.297Z,9.27
2018-09-04T14:07:58.422Z,7.77
2018-09-04T14:10:27.304Z,9.13
2018-09-04T14:13:02.644Z,8.00
2018-09-04T14:15:32.092Z,8.67
2018-09-04T14:35:28.575Z,9.23
2018-09-04T14:37:57.339Z,8.93
2018-09-04T14:40:26.626Z,10.10
2018-09-04T14:42:55.628Z,9.33
2018-09-04T14:45:24.355Z,8.47
2018-09-04T14:47:53.426Z,9.07
2018-09-04T14:50:22.640Z,9.70
2018-09-04T14:52:51.278Z,8.57
2018-09-04T14:55:19.853Z,8.90
2018-09-04T14:57:49.343Z,8.10
2018-09-04T15:00:18.091Z,8.00
2018-09-04T15:02:46.570Z,8.93
2018-09-04T15:05:15.215Z,10.03
2018-09-04T15:07:44.275Z,10.53
2018-09-04T15:10:13.875Z,7.87
2018-09-04T15:12:43.743Z,10.83
2018-09-04T15:15:12.210Z,9.53
2018-09-04T15:17:41.055Z,8.77
2018-09-04T15:20:09.833Z,8.93
2018-09-04T15:22:38.747Z,9.70
2018-09-04T15:25:08.786Z,8.13
2018-09-04T15:27:37.385Z,9.17
2018-09-04T15:30:06.383Z,7.93
2018-09-04T15:32:34.969Z,10.07
2018-09-04T15:35:04.583Z,8.07
2018-09-04T15:37:33.369Z,9.70
2018-09-04T15:40:03.650Z,10.40
2018-09-04T15:42:32.354Z,9.70
2018-09-04T15:45:01.740Z,9.73
2018-09-04T15:47:30.104Z,10.00
2018-09-04T15:49:58.710Z,9.97
2018-09-04T15:52:27.930Z,10.83
2018-09-04T15:55:02.253Z,10.20
2018-09-04T15:57:31.957Z,14.23
2018-09-04T16:00:00.672Z,10.60
2018-09-04T16:02:30.706Z,9.97
2018-09-04T16:04:58.984Z,9.30
2018-09-04T16:07:27.887Z,13.77
2018-09-04T16:09:56.199Z,11.37
2018-09-04T16:12:25.372Z,12.97
2018-09-04T16:14:53.807Z,12.13
2018-09-04T16:17:22.063Z,12.40
2018-09-04T16:19:50.434Z,13.47
2018-09-04T16:22:18.906Z,12.07
2018-09-04T16:24:47.503Z,12.07
2018-09-04T16:27:15.599Z,11.07
2018-09-04T16:29:43.972Z,11.60
2018-09-04T16:32:12.368Z,11.77
2018-09-04T16:34:45.443Z,13.97
2018-09-04T16:37:13.788Z,14.00
2018-09-04T16:39:41.972Z,10.47
2018-09-04T16:42:10.704Z,16.50
2018-09-04T16:44:40.933Z,11.53
2018-09-04T16:47:10.617Z,10.53
2018-09-04T16:49:40.132Z,15.80
2018-09-04T16:52:08.669Z,18.97
2018-09-04T16:54:38.327Z,17.00
2018-09-04T17:15:16.087Z,103.53
2018-09-04T17:17:44.771Z,57.67
2018-09-04T17:20:14.408Z,40.27
2018-09-04T17:22:43.223Z,41.50
2018-09-04T17:25:11.577Z,47.10
2018-09-04T17:27:39.995Z,39.10
2018-09-04T17:30:08.163Z,31.33
2018-09-04T17:32:36.353Z,32.13
2018-09-04T17:35:39.192Z,31.13
2018-09-04T17:38:13.028Z,31.70
2018-09-04T17:43:26.531Z,26.27
2018-09-04T17:46:16.783Z,21.23
2018-09-04T17:48:51.432Z,17.93
2018-09-04T17:51:19.751Z,21.60
2018-09-04T17:53:48.424Z,17.40
2018-09-04T17:56:16.901Z,20.37
2018-09-04T17:58:45.147Z,21.07
2018-09-04T18:01:13.585Z,20.40
2018-09-04T18:03:41.892Z,18.87
2018-09-04T18:06:10.490Z,22.23
2018-09-04T18:08:39.028Z,17.23
2018-09-04T18:11:07.372Z,21.37
2018-09-04T18:13:35.687Z,21.03
2018-09-04T18:16:05.313Z,17.23
2018-09-04T18:18:33.793Z,22.23
2018-09-04T18:21:02.286Z,13.83
2018-09-04T18:23:31.932Z,20.17
2018-09-04T18:26:00.177Z,17.77
2018-09-04T18:28:28.629Z,20.77
2018-09-04T18:30:57.476Z,26.80
2018-09-04T18:33:26.417Z,25.67
2018-09-04T18:35:54.641Z,28.17
2018-09-04T18:38:22.741Z,28.77
2018-09-04T18:40:50.936Z,33.90
2018-09-04T18:43:19.345Z,31.33
2018-09-04T18:45:50.387Z,35.00
2018-09-04T18:48:20.542Z,42.70
2018-09-04T18:50:49.561Z,36.17
2018-09-04T18:53:18.062Z,41.23
2018-09-04T18:55:46.599Z,46.87
2018-09-04T18:58:15.009Z,50.00
2018-09-04T19:00:44.052Z,44.63
2018-09-04T19:03:12.298Z,38.10
2018-09-04T19:05:40.590Z,41.37
2018-09-04T19:08:08.896Z,39.23
2018-09-04T19:10:37.066Z,47.03
2018-09-04T19:13:05.275Z,42.43
2018-09-04T19:15:33.438Z,40.30
2018-09-04T19:18:03.019Z,43.17
2018-09-04T19:20:31.336Z,45.33
2018-09-04T19:22:59.791Z,42.43
2018-09-04T19:25:27.935Z,43.40
2018-09-04T19:27:56.279Z,45.07
2018-09-04T19:30:24.410Z,43.60
2018-09-04T19:32:52.757Z,46.57
2018-09-04T19:35:24.646Z,48.43
2018-09-04T19:37:52.862Z,40.47
2018-09-04T19:40:21.057Z,46.80
2018-09-04T19:42:49.194Z,44.30
2018-09-04T19:45:17.579Z,42.30
2018-09-04T19:47:45.834Z,40.67
2018-09-04T19:50:14.004Z,41.17
2018-09-04T19:52:42.144Z,44.30
2018-09-04T19:55:13.260Z,42.13
2018-09-04T19:57:41.506Z,46.70
2018-09-04T20:00:10.791Z,47.80
2018-09-04T20:02:39.143Z,46.30
2018-09-04T20:05:08.183Z,48.27
2018-09-04T20:07:36.575Z,45.20
2018-09-04T20:10:05.215Z,44.57
2018-09-04T20:12:33.421Z,45.80
2018-09-04T20:21:34.456Z,41.20
2018-09-04T20:24:02.582Z,38.17
2018-09-04T20:26:32.112Z,38.70
2018-09-04T20:29:00.216Z,32.00
2018-09-04T20:31:29.075Z,34.73
2018-09-04T20:33:57.586Z,29.33
2018-09-04T20:36:27.568Z,39.63
2018-09-04T20:39:01.382Z,35.03
2018-09-04T20:41:29.559Z,32.13
2018-09-04T20:43:57.825Z,40.87
2018-09-04T20:46:25.904Z,36.77
2018-09-04T20:48:54.091Z,37.30
2018-09-04T20:51:22.228Z,35.40
2018-09-04T20:53:54.414Z,32.77
2018-09-04T20:56:22.759Z,36.20
2018-09-04T20:59:02.185Z,36.87
2018-09-04T21:01:45.490Z,35.67
2018-09-04T21:04:25.203Z,44.13
2018-09-04T21:06:53.895Z,41.47
2018-09-04T21:13:04.001Z,31.30
2018-09-04T21:15:32.335Z,32.00
2018-09-04T21:18:01.906Z,33.47
2018-09-04T21:20:30.301Z,35.77
2018-09-04T21:22:58.497Z,31.30
2018-09-04T21:25:26.689Z,42.00
2018-09-04T21:27:54.982Z,38.20
2018-09-04T21:30:23.199Z,39.40
2018-09-04T21:32:51.395Z,34.30
2018-09-04T21:35:19.527Z,43.60
2018-09-04T21:37:47.725Z,43.40
2018-09-04T21:40:15.887Z,40.10
2018-09-04T21:42:44.551Z,42.70
2018-09-04T21:45:12.658Z,52.27
2018-09-04T21:47:40.817Z,42.80
2018-09-04T21:50:13.579Z,35.60
2018-09-04T21:52:41.995Z,39.73
2018-09-04T21:55:12.452Z,43.20
2018-09-04T21:57:40.750Z,38.00
2018-09-04T22:00:09.398Z,41.20
2018-09-04T22:02:39.308Z,39.23
2018-09-04T22:05:07.559Z,37.87
2018-09-04T22:07:35.722Z,40.60
2018-09-04T22:10:04.176Z,44.07
2018-09-04T22:12:32.310Z,34.43
2018-09-04T22:15:00.581Z,34.97
2018-09-04T22:17:29.031Z,36.50
2018-09-04T22:19:57.232Z,35.43
2018-09-04T22:22:25.483Z,35.20
2018-09-04T22:24:53.622Z,42.07
2018-09-04T22:27:21.755Z,40.03
2018-09-04T22:29:49.980Z,38.47
2018-09-04T22:32:18.177Z,41.00
2018-09-04T22:34:46.334Z,44.77
2018-09-04T22:37:14.490Z,37.23
2018-09-04T22:39:42.674Z,38.77
2018-09-04T22:42:10.924Z,36.63
2018-09-04T22:44:39.120Z,39.30
2018-09-04T22:47:07.764Z,39.27
2018-09-04T22:49:35.934Z,48.50
2018-09-04T22:52:04.103Z,42.30
2018-09-04T22:54:32.521Z,46.03
2018-09-04T22:57:00.665Z,38.20
2018-09-04T22:59:29.371Z,40.10
2018-09-04T23:01:57.507Z,39.43
2018-09-04T23:04:25.731Z,40.30
2018-09-04T23:06:53.902Z,39.67
2018-09-04T23:09:22.022Z,35.97
2018-09-04T23:11:50.138Z,36.73
2018-09-04T23:14:18.288Z,36.53
2018-09-04T23:16:46.420Z,37.03
2018-09-04T23:19:14.554Z,39.00
2018-09-04T23:21:42.650Z,33.80
2018-09-04T23:24:10.827Z,37.37
2018-09-04T23:26:38.922Z,35.43
2018-09-04T23:29:07.055Z,44.10
2018-09-04T23:31:35.190Z,38.57
2018-09-04T23:34:03.355Z,44.37
2018-09-04T23:36:31.886Z,36.47
2018-09-04T23:39:00.090Z,32.37
2018-09-04T23:41:28.199Z,43.93
2018-09-04T23:43:56.338Z,32.23
2018-09-04T23:46:24.442Z,39.27
2018-09-04T23:48:52.667Z,35.03
2018-09-04T23:51:20.798Z,43.77
2018-09-04T23:53:49.034Z,41.30
2018-09-04T23:56:17.215Z,35.97
2018-09-04T23:58:45.399Z,32.00
